Time;durP1;ratioP1;P1;durP2;ratioP2;P2;SDS_P1;SDS_P2;PMS_P1;PMS_P2;Temp;Humidity;BMP_temperature;BMP_pressure;BME280_temperature;BME280_humidity;BME280_pressure;Samples;Min_cycle;Max_cycle;Signal;HPM_P1;HPM_P2
2022/03/23 00:01:45;;;;;;;177.50;58.97;;;;;;;-149.78;100.00;50246.53;5071783;28;20090;-72
2022/03/23 00:04:12;;;;;;;162.93;57.13;;;;;;;-149.78;100.00;50225.03;5070673;28;20059;-71
2022/03/23 00:06:38;;;;;;;173.75;59.75;;;;;;;-149.78;100.00;50273.91;5070594;28;20127;-72
2022/03/23 00:09:04;;;;;;;160.57;57.83;;;;;;;-149.78;100.00;50271.97;5055995;28;20564;-72
2022/03/23 00:11:32;;;;;;;158.18;56.40;;;;;;;-149.78;100.00;50228.94;5074823;28;20078;-72
2022/03/23 00:13:58;;;;;;;162.60;56.47;;;;;;;-149.78;100.00;50232.84;5074977;28;20393;-72
2022/03/23 00:16:24;;;;;;;166.38;56.33;;;;;;;-149.78;100.00;50279.78;5072227;28;20040;-72
2022/03/23 00:18:49;;;;;;;162.15;57.00;;;;;;;-149.78;100.00;50309.13;5053222;28;20394;-72
2022/03/23 00:21:16;;;;;;;160.50;57.05;;;;;;;-149.78;100.00;50260.22;5073520;28;20024;-72
2022/03/23 00:23:42;;;;;;;168.98;56.35;;;;;;;-149.78;100.00;50228.94;5075644;28;20024;-72
2022/03/23 00:26:08;;;;;;;176.77;58.67;;;;;;;-149.78;100.00;50268.03;5073823;28;20391;-72
2022/03/23 00:28:34;;;;;;;171.68;57.55;;;;;;;-149.78;100.00;50287.59;5072245;28;20031;-72
2022/03/23 00:31:00;;;;;;;171.48;59.55;;;;;;;-149.78;100.00;50260.22;5072795;28;20046;-72
2022/03/23 00:33:25;;;;;;;165.10;57.78;;;;;;;-149.78;100.00;50260.22;5073639;28;20052;-71
2022/03/23 00:35:51;;;;;;;154.02;55.05;;;;;;;-149.78;100.00;50275.88;5072582;28;20097;-70
2022/03/23 00:38:18;;;;;;;162.57;57.15;;;;;;;-149.78;100.00;50268.03;5074995;28;20042;-70
2022/03/23 00:40:44;;;;;;;142.05;53.47;;;;;;;-149.78;100.00;50254.34;5072952;28;20670;-71
2022/03/23 00:43:11;;;;;;;164.15;54.85;;;;;;;-149.78;100.00;50232.84;5073485;28;20471;-70
2022/03/23 00:45:37;;;;;;;153.95;55.22;;;;;;;-149.78;100.00;50234.81;5074171;28;20305;-71
2022/03/23 00:48:04;;;;;;;155.73;53.65;;;;;;;-149.78;100.00;50287.59;5073726;28;20040;-71
2022/03/23 00:50:30;;;;;;;154.30;54.40;;;;;;;-149.78;100.00;50273.91;5070918;28;20051;-70
2022/03/23 00:52:56;;;;;;;152.93;53.97;;;;;;;-149.78;100.00;50287.59;5068504;28;20029;-71
2022/03/23 00:55:23;;;;;;;151.60;55.00;;;;;;;-149.78;100.00;50287.59;5073545;28;20039;-72
2022/03/23 00:57:49;;;;;;;152.77;53.33;;;;;;;-149.78;100.00;50260.22;5092009;28;20035;-72
2022/03/23 01:00:17;;;;;;;156.13;52.75;;;;;;;-149.78;100.00;50271.97;5092045;28;20429;-71
2022/03/23 01:02:45;;;;;;;168.52;54.92;;;;;;;-149.78;100.00;50295.44;5093177;28;20109;-72
2022/03/23 01:05:12;;;;;;;159.40;55.65;;;;;;;-149.78;100.00;50293.47;5091443;28;20024;-71
2022/03/23 01:07:38;;;;;;;159.48;56.60;;;;;;;-149.78;100.00;50311.06;5092509;28;20475;-72
2022/03/23 01:10:06;;;;;;;182.07;59.53;;;;;;;-149.78;100.00;50271.97;5091528;28;20432;-71
2022/03/23 01:12:32;;;;;;;163.70;56.45;;;;;;;-149.78;100.00;50264.13;5091460;28;20040;-72
2022/03/23 01:14:58;;;;;;;173.88;61.10;;;;;;;-149.78;100.00;50228.94;5092590;28;20047;-72
2022/03/23 01:17:25;;;;;;;172.98;59.45;;;;;;;-149.78;100.00;50279.78;5091306;28;20119;-72
2022/03/23 01:19:50;;;;;;;183.38;62.95;;;;;;;-149.78;100.00;50303.25;5072490;28;20029;-71
2022/03/23 01:22:16;;;;;;;170.45;59.13;;;;;;;-149.78;100.00;50283.69;5072221;28;20051;-72
2022/03/23 01:24:43;;;;;;;177.98;60.08;;;;;;;-149.78;100.00;50268.03;5072192;28;20062;-70
2022/03/23 01:27:09;;;;;;;168.40;60.67;;;;;;;-149.78;100.00;50232.84;5053937;28;20111;-71
2022/03/23 01:29:36;;;;;;;164.38;56.33;;;;;;;-149.78;100.00;50287.59;5054267;28;20055;-71
2022/03/23 01:32:02;;;;;;;194.63;63.53;;;;;;;-149.78;100.00;50283.69;5090277;28;20031;-72
2022/03/23 01:34:28;;;;;;;168.00;59.08;;;;;;;-149.78;100.00;50279.78;5092016;28;20107;-72
2022/03/23 01:36:54;;;;;;;172.77;56.45;;;;;;;-149.78;100.00;50291.50;5092130;28;20135;-72
2022/03/23 01:39:20;;;;;;;171.02;57.63;;;;;;;-149.78;100.00;50287.59;5091989;28;20097;-71
2022/03/23 01:41:46;;;;;;;165.02;56.58;;;;;;;-149.78;100.00;50271.97;5092148;28;20229;-71
2022/03/23 01:44:23;;;;;;;176.32;60.78;;;;;;;-149.78;100.00;50268.03;5090666;28;20360;-71
2022/03/23 01:47:08;;;;;;;182.32;60.53;;;;;;;-149.78;100.00;50336.50;5092482;28;20055;-72
2022/03/23 01:49:36;;;;;;;173.13;59.15;;;;;;;-149.78;100.00;50307.16;5092293;28;20032;-72
2022/03/23 01:52:06;;;;;;;172.50;59.45;;;;;;;-149.78;100.00;50346.28;5091091;28;20093;-72
2022/03/23 01:54:32;;;;;;;188.88;60.65;;;;;;;-149.78;100.00;50295.44;5091108;28;20081;-72
2022/03/23 01:57:00;;;;;;;186.32;61.50;;;;;;;-149.78;100.00;50289.56;5090974;28;20043;-71
2022/03/23 01:59:27;;;;;;;197.05;63.00;;;;;;;-149.78;100.00;50301.28;5092274;28;20052;-71
2022/03/23 02:01:54;;;;;;;179.05;59.20;;;;;;;-149.78;100.00;50311.06;5092493;28;20051;-72
2022/03/23 02:04:20;;;;;;;182.27;61.40;;;;;;;-149.78;100.00;50260.22;5092250;28;20028;-72
2022/03/23 02:06:48;;;;;;;185.55;60.25;;;;;;;-149.78;100.00;50322.81;5078008;28;20032;-71
2022/03/23 02:09:15;;;;;;;176.13;59.97;;;;;;;-149.78;100.00;50289.56;5090945;28;20131;-72
2022/03/23 02:11:42;;;;;;;172.18;58.60;;;;;;;-149.78;100.00;50318.91;5090831;28;20048;-70
2022/03/23 02:14:10;;;;;;;162.65;55.00;;;;;;;-149.78;100.00;50299.34;5078058;28;20493;-70
2022/03/23 02:16:43;;;;;;;182.35;59.88;;;;;;;-149.78;100.00;50279.78;5079573;28;20123;-70
2022/03/23 02:19:09;;;;;;;181.65;58.72;;;;;;;-149.78;100.00;50283.69;5087396;28;20051;-71
2022/03/23 02:21:35;;;;;;;192.80;60.50;;;;;;;-149.78;100.00;50309.13;5087607;28;20040;-70
2022/03/23 02:24:04;;;;;;;174.23;58.08;;;;;;;-149.78;100.00;50295.44;5071642;28;20032;-70
2022/03/23 02:26:31;;;;;;;170.23;57.25;;;;;;;-149.78;100.00;50307.16;5071426;28;20102;-70
2022/03/23 02:28:59;;;;;;;180.70;57.15;;;;;;;-149.78;100.00;50322.81;5070399;28;20133;-71
2022/03/23 02:31:26;;;;;;;176.93;57.85;;;;;;;-149.78;100.00;50305.22;5085229;28;20036;-70
2022/03/23 02:33:52;;;;;;;169.90;56.65;;;;;;;-149.78;100.00;50307.16;5091756;28;20051;-70
2022/03/23 02:36:18;;;;;;;161.10;53.90;;;;;;;-149.78;100.00;50283.69;5090484;28;20024;-70
2022/03/23 02:38:43;;;;;;;167.85;60.28;;;;;;;-149.78;100.00;50318.91;5090337;28;20032;-70
2022/03/23 02:41:10;;;;;;;170.07;55.45;;;;;;;-149.78;100.00;50301.28;5091620;28;20383;-71
2022/03/23 02:43:36;;;;;;;171.18;56.15;;;;;;;-149.78;100.00;50334.53;5091779;28;20032;-71
2022/03/23 02:46:02;;;;;;;178.15;57.72;;;;;;;-149.78;100.00;50307.16;5090971;28;20039;-71
2022/03/23 02:48:28;;;;;;;168.15;55.38;;;;;;;-149.78;100.00;50270.00;5080536;28;20043;-70
2022/03/23 02:50:54;;;;;;;185.10;59.80;;;;;;;-149.78;100.00;50291.50;5073882;28;20040;-70
2022/03/23 03:02:21;;;;;;;161.18;55.28;;;;;;;-149.78;100.00;50311.06;5075096;28;20071;-70
2022/03/23 03:04:50;;;;;;;164.85;55.42;;;;;;;-149.78;100.00;50318.91;5083355;28;20031;-70
2022/03/23 03:07:17;;;;;;;178.75;58.45;;;;;;;-149.78;100.00;50340.41;5093790;28;20025;-71
2022/03/23 03:09:44;;;;;;;183.77;58.15;;;;;;;-149.78;100.00;50256.31;5093716;28;20123;-71
2022/03/23 03:12:11;;;;;;;167.23;57.22;;;;;;;-149.78;100.00;50279.78;5095047;28;20484;-70
2022/03/23 03:14:40;;;;;;;182.68;59.95;;;;;;;-149.78;100.00;50295.44;5095079;28;20032;-70
2022/03/23 03:17:07;;;;;;;174.13;57.58;;;;;;;-149.78;100.00;50314.97;5093738;28;20124;-70
2022/03/23 03:19:35;;;;;;;176.50;56.70;;;;;;;-149.78;100.00;50336.50;5094909;28;20028;-70
2022/03/23 03:22:08;;;;;;;190.93;59.90;;;;;;;-149.78;100.00;50330.63;5093489;28;20085;-70
2022/03/23 03:24:37;;;;;;;188.02;58.17;;;;;;;-149.78;100.00;50293.47;5076933;28;20529;-70
2022/03/23 03:27:10;;;;;;;176.85;58.97;;;;;;;-149.78;100.00;50328.69;5093496;28;20091;-71
2022/03/23 03:29:40;;;;;;;166.70;56.10;;;;;;;-149.78;100.00;50303.25;5061227;28;20494;-71
2022/03/23 03:32:08;;;;;;;163.00;55.38;;;;;;;-149.78;100.00;50303.25;5094814;28;20047;-71
2022/03/23 03:34:33;;;;;;;166.73;54.95;;;;;;;-149.78;100.00;50307.16;5093480;28;20047;-70
2022/03/23 03:36:59;;;;;;;178.65;56.85;;;;;;;-149.78;100.00;50299.34;5076624;28;20032;-70
2022/03/23 03:39:24;;;;;;;162.73;55.75;;;;;;;-149.78;100.00;50358.00;5059661;28;20064;-71
2022/03/23 03:41:50;;;;;;;173.18;56.80;;;;;;;-149.78;100.00;50330.63;5093378;28;20047;-70
2022/03/23 03:44:16;;;;;;;183.77;57.80;;;;;;;-149.78;100.00;50314.97;5094454;28;20544;-70
2022/03/23 03:46:41;;;;;;;171.43;58.90;;;;;;;-149.78;100.00;50330.63;5094311;28;20556;-71
2022/03/23 03:49:07;;;;;;;167.40;55.38;;;;;;;-149.78;100.00;50318.91;5094507;28;20440;-71
2022/03/23 03:51:33;;;;;;;177.25;57.20;;;;;;;-149.78;100.00;50311.06;5093044;28;20040;-70
2022/03/23 03:53:59;;;;;;;173.07;56.95;;;;;;;-149.78;100.00;50326.72;5093038;28;20093;-70
2022/03/23 03:56:24;;;;;;;174.85;56.65;;;;;;;-149.78;100.00;50293.47;5092938;28;20032;-71
2022/03/23 03:58:50;;;;;;;186.45;59.35;;;;;;;-149.78;100.00;50332.59;5074917;28;20044;-70
2022/03/23 04:01:16;;;;;;;199.00;60.90;;;;;;;-149.78;100.00;50314.97;5089693;28;20032;-71
2022/03/23 04:03:42;;;;;;;193.95;61.30;;;;;;;-149.78;100.00;50320.84;5085897;28;20115;-71
2022/03/23 04:06:08;;;;;;;203.10;62.53;;;;;;;-149.78;100.00;50295.44;5055800;28;20153;-70
2022/03/23 04:08:35;;;;;;;198.30;63.05;;;;;;;-149.78;100.00;50293.47;5073769;28;20165;-71
2022/03/23 04:11:01;;;;;;;193.65;61.40;;;;;;;-149.78;100.00;50320.84;5073828;28;20392;-70
2022/03/23 04:13:28;;;;;;;193.20;59.00;;;;;;;-149.78;100.00;50324.75;5072343;28;20105;-71
2022/03/23 04:15:53;;;;;;;188.38;60.25;;;;;;;-149.78;100.00;50334.53;5072542;28;20032;-70
2022/03/23 04:18:19;;;;;;;188.32;59.40;;;;;;;-149.78;100.00;50314.97;5081231;28;20487;-71
2022/03/23 04:20:44;;;;;;;194.65;61.80;;;;;;;-149.78;100.00;50318.91;5093662;28;20035;-70
2022/03/23 04:23:10;;;;;;;200.55;64.65;;;;;;;-149.78;100.00;50318.91;5093539;28;20119;-70
2022/03/23 04:25:35;;;;;;;213.95;64.18;;;;;;;-149.78;100.00;50285.66;5085623;28;20071;-71
2022/03/23 04:28:01;;;;;;;185.75;60.78;;;;;;;-149.78;100.00;50320.84;5088917;28;20387;-70
2022/03/23 04:30:30;;;;;;;191.43;59.28;;;;;;;-149.78;100.00;50299.34;5093087;28;20048;-70
2022/03/23 04:32:56;;;;;;;184.38;57.67;;;;;;;-149.78;100.00;50299.34;5092875;28;20036;-71
2022/03/23 04:35:22;;;;;;;207.23;63.65;;;;;;;-149.78;100.00;50326.72;5092545;28;20127;-70
2022/03/23 04:37:50;;;;;;;175.60;57.70;;;;;;;-149.78;100.00;50354.09;5091536;28;20036;-71
2022/03/23 04:40:16;;;;;;;176.38;59.00;;;;;;;-149.78;100.00;50342.38;5092901;28;20042;-70
2022/03/23 04:42:43;;;;;;;195.50;62.83;;;;;;;-149.78;100.00;50283.69;5074606;28;20039;-70
2022/03/23 04:45:10;;;;;;;191.93;60.63;;;;;;;-149.78;100.00;50322.81;5092621;28;20028;-71
2022/03/23 04:47:39;;;;;;;193.40;62.35;;;;;;;-149.78;100.00;50322.81;5091273;28;20028;-70
2022/03/23 04:50:07;;;;;;;196.13;59.83;;;;;;;-149.78;100.00;50326.72;5091525;28;20047;-70
2022/03/23 04:52:33;;;;;;;178.35;58.80;;;;;;;-149.78;100.00;50307.16;5091371;28;20518;-70
2022/03/23 04:54:59;;;;;;;181.90;58.88;;;;;;;-149.78;100.00;50314.97;5091303;28;20036;-71
2022/03/23 04:57:26;;;;;;;188.13;57.38;;;;;;;-149.78;100.00;50307.16;5092452;28;20043;-71
2022/03/23 04:59:57;;;;;;;180.00;55.75;;;;;;;-149.78;100.00;50301.28;5092343;28;20032;-71
2022/03/23 05:02:23;;;;;;;167.20;55.00;;;;;;;-149.78;100.00;50299.34;5092252;28;20092;-71
2022/03/23 05:04:48;;;;;;;168.60;53.90;;;;;;;-149.78;100.00;50330.63;5092761;28;20028;-70
2022/03/23 05:07:14;;;;;;;157.95;53.70;;;;;;;-149.78;100.00;50314.97;5091352;28;20032;-71
2022/03/23 05:09:40;;;;;;;173.38;55.05;;;;;;;-149.78;100.00;50330.63;5074332;28;20035;-70
2022/03/23 05:12:06;;;;;;;158.15;52.30;;;;;;;-149.78;100.00;50326.72;5091571;28;20028;-71
2022/03/23 05:14:32;;;;;;;163.48;51.15;;;;;;;-149.78;100.00;50334.53;5091637;28;20127;-70
2022/03/23 05:16:57;;;;;;;174.38;55.13;;;;;;;-149.78;100.00;50352.16;5092753;28;20111;-71
2022/03/23 05:19:23;;;;;;;158.75;52.70;;;;;;;-149.78;100.00;50354.09;5091381;28;20123;-70
2022/03/23 05:21:49;;;;;;;184.18;55.40;;;;;;;-149.78;100.00;50311.06;5084374;28;20033;-71
2022/03/23 05:24:15;;;;;;;193.25;59.53;;;;;;;-149.78;100.00;50346.28;5070920;28;20040;-71
2022/03/23 05:26:40;;;;;;;156.43;54.08;;;;;;;-149.78;100.00;50334.53;5054257;28;20142;-71
2022/03/23 05:29:06;;;;;;;176.20;55.60;;;;;;;-149.78;100.00;50330.63;5072394;28;20067;-71
2022/03/23 05:31:31;;;;;;;171.85;53.90;;;;;;;-149.78;100.00;50314.97;5072051;28;20033;-71
2022/03/23 05:33:57;;;;;;;165.77;57.17;;;;;;;-149.78;100.00;50358.00;5054594;28;20455;-70
2022/03/23 05:36:23;;;;;;;168.93;53.60;;;;;;;-149.78;100.00;50338.44;5073543;28;20119;-70
2022/03/23 05:38:49;;;;;;;172.98;56.53;;;;;;;-149.78;100.00;50358.00;5091091;28;20042;-71
2022/03/23 05:41:15;;;;;;;183.77;57.10;;;;;;;-149.78;100.00;50354.09;5092379;28;20040;-70
2022/03/23 05:43:40;;;;;;;176.13;56.88;;;;;;;-149.78;100.00;50334.53;5073941;28;20044;-71
2022/03/23 05:46:06;;;;;;;170.85;56.83;;;;;;;-149.78;100.00;50322.81;5091888;28;20028;-70
2022/03/23 05:48:33;;;;;;;186.82;61.42;;;;;;;-149.78;100.00;50330.63;5068986;28;20033;-70
2022/03/23 05:50:59;;;;;;;182.57;59.75;;;;;;;-149.78;100.00;50369.75;5065770;28;20049;-71
2022/03/23 05:53:24;;;;;;;189.15;59.17;;;;;;;-149.78;100.00;50334.53;5081001;28;20032;-71
2022/03/23 05:55:50;;;;;;;166.68;57.53;;;;;;;-149.78;100.00;50305.22;5090817;28;20483;-71
2022/03/23 05:58:17;;;;;;;193.55;63.08;;;;;;;-149.78;100.00;50346.28;5092040;28;20119;-71
2022/03/23 06:00:44;;;;;;;196.50;62.28;;;;;;;-149.78;100.00;50311.06;5086518;28;20090;-70
2022/03/23 06:03:10;;;;;;;190.10;61.38;;;;;;;-149.78;100.00;50346.28;5071464;28;20087;-70
2022/03/23 06:05:36;;;;;;;194.85;62.28;;;;;;;-149.78;100.00;50338.44;5054990;28;20074;-70
2022/03/23 06:08:03;;;;;;;192.43;61.90;;;;;;;-149.78;100.00;50371.69;5078344;28;20146;-71
2022/03/23 06:10:29;;;;;;;187.50;61.40;;;;;;;-149.78;100.00;50354.09;5082125;28;20032;-70
2022/03/23 06:12:55;;;;;;;186.88;59.70;;;;;;;-149.78;100.00;50342.38;5070470;28;20032;-70
2022/03/23 06:15:21;;;;;;;183.70;61.30;;;;;;;-149.78;100.00;50342.38;5087098;28;20365;-71
2022/03/23 06:17:46;;;;;;;183.43;62.10;;;;;;;-149.78;100.00;50311.06;5050666;28;20040;-71
2022/03/23 06:20:14;;;;;;;191.75;63.10;;;;;;;-149.78;100.00;50379.53;5073171;28;20115;-71
2022/03/23 06:22:40;;;;;;;204.68;62.10;;;;;;;-149.78;100.00;50358.00;5054019;28;20540;-71
2022/03/23 06:25:07;;;;;;;186.63;61.70;;;;;;;-149.78;100.00;50342.38;5086453;28;20123;-71
2022/03/23 06:27:34;;;;;;;186.43;60.88;;;;;;;-149.78;100.00;50338.44;5076486;28;20040;-71
2022/03/23 06:30:00;;;;;;;196.05;63.63;;;;;;;-149.78;100.00;50332.59;5076232;28;20044;-70
2022/03/23 06:32:26;;;;;;;190.38;60.88;;;;;;;-149.78;100.00;50352.16;5093432;28;20100;-70
2022/03/23 06:34:51;;;;;;;206.90;62.10;;;;;;;-149.78;100.00;50334.53;5079907;28;20112;-70
2022/03/23 06:37:17;;;;;;;192.27;62.85;;;;;;;-149.78;100.00;50330.63;5058757;28;20021;-70
2022/03/23 06:39:43;;;;;;;212.23;62.78;;;;;;;-149.78;100.00;50307.16;5076436;28;20083;-71
2022/03/23 06:42:09;;;;;;;180.07;62.17;;;;;;;-149.78;100.00;50359.97;5056878;28;20036;-71
2022/03/23 06:44:35;;;;;;;183.05;61.42;;;;;;;-149.78;100.00;50346.28;5075083;28;20495;-70
2022/03/23 06:47:01;;;;;;;215.15;66.00;;;;;;;-149.78;100.00;50297.38;5061669;28;20024;-71
2022/03/23 06:49:26;;;;;;;213.07;69.18;;;;;;;-149.78;100.00;50314.97;5058624;28;20044;-71
2022/03/23 06:51:52;;;;;;;209.85;65.20;;;;;;;-149.78;100.00;50330.63;5085573;28;20348;-71
2022/03/23 06:54:18;;;;;;;198.77;65.47;;;;;;;-149.78;100.00;50334.53;5085400;28;20483;-70
2022/03/23 06:56:44;;;;;;;210.60;67.40;;;;;;;-149.78;100.00;50338.44;5081341;28;20063;-69
2022/03/23 06:59:10;;;;;;;218.15;71.93;;;;;;;-149.78;100.00;50358.00;5063939;28;20084;-70
2022/03/23 07:01:35;;;;;;;196.52;66.38;;;;;;;-149.78;100.00;50299.34;5086896;28;21265;-70
2022/03/23 07:04:01;;;;;;;205.32;66.65;;;;;;;-149.78;100.00;50358.00;5084178;28;20032;-71
2022/03/23 07:06:27;;;;;;;216.77;68.93;;;;;;;-149.78;100.00;50330.63;5085151;28;20047;-70
2022/03/23 07:11:37;;;;;;;225.98;70.22;;;;;;;-149.78;100.00;50279.78;5079480;28;20063;-70
2022/03/23 07:14:03;;;;;;;251.90;77.32;;;;;;;-149.78;100.00;50330.63;5071896;28;20058;-71
2022/03/23 07:16:28;;;;;;;219.80;70.25;;;;;;;-149.78;100.00;50324.75;5056707;28;20025;-69
2022/03/23 07:18:54;;;;;;;237.23;75.30;;;;;;;-149.78;100.00;50311.06;5073338;28;20392;-69
2022/03/23 07:21:20;;;;;;;227.35;73.70;;;;;;;-149.78;100.00;50326.72;5083085;28;20447;-70
2022/03/23 07:23:46;;;;;;;231.95;74.15;;;;;;;-149.78;100.00;50336.50;5076659;28;20036;-71
2022/03/23 07:26:14;;;;;;;229.82;72.57;;;;;;;-149.78;100.00;50344.31;5094564;28;20540;-70
2022/03/23 07:28:39;;;;;;;206.48;65.75;;;;;;;-149.78;100.00;50295.44;5085748;28;20029;-70
2022/03/23 07:31:05;;;;;;;207.40;68.50;;;;;;;-149.78;100.00;50307.16;5077863;28;20459;-69
2022/03/23 07:33:31;;;;;;;219.25;70.35;;;;;;;-149.78;100.00;50334.53;5076362;28;20030;-70
2022/03/23 07:35:57;;;;;;;205.00;66.95;;;;;;;-149.78;100.00;50322.81;5085809;28;20391;-71
2022/03/23 07:38:22;;;;;;;210.45;68.75;;;;;;;-149.78;100.00;50330.63;5074577;28;20036;-70
2022/03/23 07:40:48;;;;;;;208.75;68.10;;;;;;;-149.78;100.00;50289.56;5074899;28;20024;-70
2022/03/23 07:43:14;;;;;;;200.63;65.72;;;;;;;-149.78;100.00;50307.16;5084456;28;20028;-71
2022/03/23 07:45:40;;;;;;;185.05;60.97;;;;;;;-149.78;100.00;50281.75;5065860;28;20111;-71
2022/03/23 07:48:06;;;;;;;173.13;60.97;;;;;;;-149.78;100.00;50299.34;5047914;28;20391;-71
2022/03/23 07:50:31;;;;;;;175.05;60.00;;;;;;;-149.78;100.00;50307.16;5089648;28;20028;-71
2022/03/23 07:52:57;;;;;;;182.85;61.00;;;;;;;-149.78;100.00;50314.97;5080586;28;20043;-70
2022/03/23 07:55:23;;;;;;;174.48;60.67;;;;;;;-149.78;100.00;50293.47;5071793;28;20022;-70
2022/03/23 07:57:49;;;;;;;166.57;59.25;;;;;;;-149.78;100.00;50287.59;5063849;28;20563;-72
2022/03/23 08:00:15;;;;;;;149.82;54.75;;;;;;;-149.78;100.00;50283.69;5074921;28;20039;-70
2022/03/23 08:02:41;;;;;;;137.48;50.58;;;;;;;-149.78;100.00;50250.44;5075099;28;20047;-70
2022/03/23 08:05:09;;;;;;;134.43;51.08;;;;;;;-149.78;100.00;50271.97;5073812;28;20058;-71
2022/03/23 08:07:35;;;;;;;127.65;48.53;;;;;;;-149.78;100.00;50213.28;5073216;28;20387;-70
2022/03/23 08:10:01;;;;;;;134.73;53.75;;;;;;;-149.78;100.00;50252.41;5075802;28;20063;-72
2022/03/23 08:12:26;;;;;;;124.40;50.83;;;;;;;-149.78;100.00;50217.19;5073105;28;20460;-71
2022/03/23 08:14:52;;;;;;;122.10;50.15;;;;;;;-149.78;100.00;50185.91;5079108;28;20122;-72
2022/03/23 08:17:19;;;;;;;117.60;48.50;;;;;;;-149.78;100.00;50209.38;5074664;28;20029;-72
2022/03/23 08:19:44;;;;;;;111.60;48.25;;;;;;;-149.78;100.00;50152.66;5073382;28;20069;-71
2022/03/23 08:22:11;;;;;;;108.45;48.55;;;;;;;-149.78;100.00;50170.25;5083182;28;20525;-72
2022/03/23 08:24:37;;;;;;;110.40;47.78;;;;;;;-149.78;100.00;50135.06;5088138;28;20159;-71
2022/03/23 08:27:03;;;;;;;111.88;48.03;;;;;;;-149.78;100.00;50137.03;5089269;28;20543;-71
2022/03/23 08:29:29;;;;;;;103.30;46.58;;;;;;;-149.78;100.00;50138.97;5074166;28;20441;-71
2022/03/23 08:31:55;;;;;;;107.18;48.72;;;;;;;-149.78;100.00;50117.47;5049088;28;20033;-72
2022/03/23 08:34:21;;;;;;;107.43;49.28;;;;;;;-149.78;100.00;50127.25;5084219;28;20032;-71
2022/03/23 08:36:46;;;;;;;100.15;48.15;;;;;;;-149.78;100.00;50178.09;5092873;28;20043;-71
2022/03/23 08:39:12;;;;;;;105.85;47.15;;;;;;;-149.78;100.00;50174.19;5092272;28;20131;-71
2022/03/23 08:41:40;;;;;;;112.22;51.05;;;;;;;-149.78;100.00;50172.22;5093446;28;20442;-71
2022/03/23 08:44:06;;;;;;;124.65;56.50;;;;;;;-149.78;100.00;50174.19;5092067;28;20070;-71
2022/03/23 08:46:32;;;;;;;123.53;53.38;;;;;;;-149.78;100.00;50213.28;5093411;28;20067;-71
2022/03/23 08:48:58;;;;;;;116.13;52.95;;;;;;;-149.78;100.00;50221.13;5092013;28;20098;-71
2022/03/23 08:51:24;;;;;;;125.20;52.28;;;;;;;-149.78;100.00;50178.09;5074932;28;20040;-71
2022/03/23 08:53:49;;;;;;;125.88;54.70;;;;;;;-149.78;100.00;50221.13;5093155;28;20506;-71
2022/03/23 08:56:15;;;;;;;125.68;52.40;;;;;;;-149.78;100.00;50209.38;5093206;28;20036;-71
2022/03/23 08:58:47;;;;;;;135.05;57.63;;;;;;;-149.78;100.00;50197.66;5091797;28;20040;-71
2022/03/23 09:01:15;;;;;;;136.52;56.45;;;;;;;-149.78;100.00;50209.38;5093022;28;20047;-71
2022/03/23 09:03:42;;;;;;;154.23;65.13;;;;;;;-149.78;100.00;50170.25;5092875;28;20043;-71
2022/03/23 09:06:09;;;;;;;145.65;61.55;;;;;;;-149.78;100.00;50170.25;5093016;28;20100;-71
2022/03/23 09:08:35;;;;;;;150.10;62.17;;;;;;;-149.78;100.00;50162.44;5092822;28;20093;-71
2022/03/23 09:11:00;;;;;;;148.13;62.47;;;;;;;-149.78;100.00;50138.97;5081537;28;20040;-68
2022/03/23 09:13:26;;;;;;;143.02;63.47;;;;;;;-149.78;100.00;50138.97;5081053;28;20124;-71
2022/03/23 09:15:51;;;;;;;158.90;65.88;;;;;;;-149.78;100.00;50170.25;5072198;28;20453;-70
2022/03/23 09:18:17;;;;;;;149.13;63.67;;;;;;;-149.78;100.00;50162.44;5071293;28;20584;-70
2022/03/23 09:20:43;;;;;;;144.68;61.55;;;;;;;-149.78;100.00;50115.50;5071173;28;20370;-71
2022/03/23 09:23:09;;;;;;;147.63;62.67;;;;;;;-149.78;100.00;50182.00;5089209;28;20032;-71
2022/03/23 09:25:35;;;;;;;146.95;63.03;;;;;;;-149.78;100.00;50174.19;5090983;28;20514;-71
2022/03/23 09:28:03;;;;;;;142.27;62.67;;;;;;;-149.78;100.00;50166.34;5091386;28;20063;-71
2022/03/23 09:30:29;;;;;;;144.63;62.30;;;;;;;-149.78;100.00;50183.97;5091247;28;20040;-71
2022/03/23 09:32:55;;;;;;;148.93;64.13;;;;;;;-149.78;100.00;50182.00;5091166;28;20506;-71
2022/03/23 09:35:21;;;;;;;148.63;62.58;;;;;;;-149.78;100.00;50211.34;5092291;28;20135;-71
2022/03/23 09:37:49;;;;;;;153.65;64.45;;;;;;;-149.78;100.00;50160.50;5090761;28;20050;-71
2022/03/23 09:40:28;;;;;;;153.32;63.75;;;;;;;-149.78;100.00;50213.28;5089878;28;20448;-71
2022/03/23 09:43:08;;;;;;;158.02;64.25;;;;;;;-149.78;100.00;50197.66;5092046;28;20039;-71
2022/03/23 09:48:02;;;;;;;139.02;60.95;;;;;;;-149.78;100.00;50182.00;5090827;28;20040;-71
2022/03/23 09:50:29;;;;;;;152.65;62.60;;;;;;;-149.78;100.00;50162.44;5091649;28;20123;-71
2022/03/23 09:52:55;;;;;;;139.27;60.70;;;;;;;-149.78;100.00;50109.66;5091765;28;20081;-71
2022/03/23 09:55:22;;;;;;;137.40;59.63;;;;;;;-149.78;100.00;50088.13;5072779;28;20055;-73
2022/03/23 09:57:48;;;;;;;134.35;58.35;;;;;;;-149.78;100.00;50080.31;5091246;28;20040;-71
2022/03/23 10:00:14;;;;;;;135.40;59.95;;;;;;;-149.78;100.00;50119.41;5087986;28;20037;-70
2022/03/23 10:02:40;;;;;;;130.95;61.47;;;;;;;-149.78;100.00;50025.56;5090078;28;20073;-69
2022/03/23 10:05:09;;;;;;;123.57;58.03;;;;;;;-149.78;100.00;50072.50;5091518;28;20025;-69
2022/03/23 10:07:49;;;;;;;127.70;59.83;;;;;;;-149.78;100.00;50064.66;5091481;28;20132;-70
2022/03/23 10:10:30;;;;;;;121.10;57.20;;;;;;;-149.78;100.00;50080.31;5091563;28;20626;-70
2022/03/23 10:13:43;;;;;;;121.88;55.45;;;;;;;-149.78;100.00;50076.41;5091403;28;20036;-70
2022/03/23 10:16:40;;;;;;;122.30;55.40;;;;;;;-149.78;100.00;50056.84;5091726;28;20028;-70
2022/03/23 10:19:06;;;;;;;120.20;56.50;;;;;;;-149.78;100.00;50088.13;5083375;28;20040;-70
2022/03/23 10:21:36;;;;;;;118.85;56.28;;;;;;;-149.78;100.00;50092.03;5091696;28;20705;-70
2022/03/23 10:24:20;;;;;;;126.65;56.50;;;;;;;-149.78;100.00;50115.50;5091755;28;20071;-71
2022/03/23 10:26:49;;;;;;;114.63;51.78;;;;;;;-149.78;100.00;50107.69;5091618;28;20064;-71
2022/03/23 10:29:20;;;;;;;123.75;55.20;;;;;;;-149.78;100.00;50138.97;5091680;28;20613;-71
2022/03/23 10:31:58;;;;;;;126.30;58.05;;;;;;;-149.78;100.00;50131.16;5091716;28;20036;-72
2022/03/23 10:34:24;;;;;;;128.82;57.15;;;;;;;-149.78;100.00;50099.88;5087821;28;20036;-72
2022/03/23 10:36:51;;;;;;;122.68;54.72;;;;;;;-149.78;100.00;50131.16;5073778;28;20361;-71
2022/03/23 10:39:19;;;;;;;123.72;54.60;;;;;;;-149.78;100.00;50064.66;5071444;28;20369;-71
2022/03/23 10:41:59;;;;;;;121.95;55.00;;;;;;;-149.78;100.00;50115.50;5053477;28;20468;-71
2022/03/23 10:44:26;;;;;;;114.75;54.85;;;;;;;-149.78;100.00;50092.03;5071456;28;20032;-72
2022/03/23 10:46:53;;;;;;;127.47;53.90;;;;;;;-149.78;100.00;50074.44;5071297;28;20036;-71
2022/03/23 10:49:33;;;;;;;121.35;54.45;;;;;;;-149.78;100.00;50041.19;5071434;28;20040;-72
2022/03/23 10:52:13;;;;;;;113.25;53.22;;;;;;;-149.78;100.00;50037.28;5071272;28;20040;-70
2022/03/23 10:54:40;;;;;;;110.25;52.90;;;;;;;-149.78;100.00;50029.47;5071322;28;20040;-70
2022/03/23 10:57:06;;;;;;;112.85;54.10;;;;;;;-149.78;100.00;50088.13;5071342;28;20111;-70
2022/03/23 10:59:32;;;;;;;117.93;53.78;;;;;;;-149.78;100.00;50025.56;5071345;28;20025;-71
2022/03/23 11:01:59;;;;;;;120.18;56.70;;;;;;;-149.78;100.00;50072.50;5071303;28;20033;-70